Time,TemperatureF,DewpointF,PressureIn,WindDirection,WindDirectionDegrees,WindSpeedMPH,WindSpeedGustMPH,Humidity,HourlyPrecipIn,Conditions,Clouds,dailyrainin,SoftwareType,DateUTC
2013-08-19 00:01:00,63.1,34.3,0.00,East,86,0.0,0.0,34,0.00,,SKC,0.00,VWS V14.00,2013-08-19 04:01:00,
2013-08-19 00:06:00,63.1,34.3,0.00,East,86,0.0,0.0,34,0.00,,SKC,0.00,VWS V14.00,2013-08-19 04:06:00,
2013-08-19 00:11:00,63.0,34.2,0.00,East,86,0.0,0.0,34,0.00,,SKC,0.00,VWS V14.00,2013-08-19 04:11:00,
2013-08-19 00:16:00,62.8,34.0,0.00,East,86,0.0,0.0,34,0.00,,SKC,0.00,VWS V14.00,2013-08-19 04:16:00,
2013-08-19 00:21:00,62.8,34.0,0.00,East,86,0.0,0.0,34,0.00,,SKC,0.00,VWS V14.00,2013-08-19 04:21:00,
2013-08-19 00:26:00,62.6,34.6,0.00,East,86,0.0,0.0,35,0.00,,SKC,0.00,VWS V14.00,2013-08-19 04:26:00,
2013-08-19 00:33:00,62.6,34.6,0.00,East,86,0.0,0.0,35,0.00,,SKC,0.00,VWS V14.00,2013-08-19 04:33:00,
2013-08-19 00:38:00,62.4,34.4,0.00,East,86,0.0,0.0,35,0.00,,SKC,0.00,VWS V14.00,2013-08-19 04:38:00,
2013-08-19 00:43:00,62.2,34.3,0.00,East,86,0.0,0.0,35,0.00,,SKC,0.00,VWS V14.00,2013-08-19 04:43:00,
2013-08-19 00:48:00,62.2,34.3,0.00,East,86,0.0,0.0,35,0.00,,SKC,0.00,VWS V14.00,2013-08-19 04:48:00,
2013-08-19 00:53:00,62.4,34.4,0.00,East,86,0.0,0.0,35,0.00,,SKC,0.00,VWS V14.00,2013-08-19 04:53:00,
2013-08-19 00:58:00,62.4,34.4,0.00,East,86,0.0,0.0,35,0.00,,SKC,0.00,VWS V14.00,2013-08-19 04:58:00,
2013-08-19 01:03:00,62.2,34.3,0.00,East,86,0.0,0.0,35,0.00,,SKC,0.00,VWS V14.00,2013-08-19 05:03:00,
2013-08-19 01:08:00,62.1,34.1,0.00,East,86,0.0,0.0,35,0.00,,SKC,0.00,VWS V14.00,2013-08-19 05:08:00,
2013-08-19 01:13:00,62.1,34.1,0.00,East,86,0.0,0.0,35,0.00,,SKC,0.00,VWS V14.00,2013-08-19 05:13:00,
2013-08-19 01:18:00,62.2,34.3,0.00,East,86,0.0,0.0,35,0.00,,SKC,0.00,VWS V14.00,2013-08-19 05:18:00,
2013-08-19 01:22:00,61.5,34.3,0.00,East,86,0.0,0.0,36,0.00,,SKC,0.00,VWS V14.00,2013-08-19 05:22:00,
2013-08-19 01:23:00,62.1,34.1,0.00,East,86,0.0,0.0,35,0.00,,SKC,0.00,VWS V14.00,2013-08-19 05:23:00,
2013-08-19 01:24:00,61.3,34.2,0.00,East,86,0.0,0.0,36,0.00,,SKC,0.00,VWS V14.00,2013-08-19 05:24:00,
2013-08-19 01:25:00,61.3,34.2,0.00,East,86,0.0,0.0,36,0.00,,SKC,0.00,VWS V14.00,2013-08-19 05:25:00,
2013-08-19 01:26:00,61.3,34.2,0.00,East,86,0.0,0.0,36,0.00,,SKC,0.00,VWS V14.00,2013-08-19 05:26:00,
2013-08-19 01:28:00,62.4,35.1,0.00,East,86,0.0,0.0,36,0.00,,SKC,0.00,VWS V14.00,2013-08-19 05:28:00,
2013-08-19 01:31:00,61.2,34.0,0.00,East,86,0.0,0.0,36,0.00,,SKC,0.00,VWS V14.00,2013-08-19 05:31:00,
2013-08-19 01:32:00,61.0,33.9,0.00,East,86,0.0,0.0,36,0.00,,SKC,0.00,VWS V14.00,2013-08-19 05:32:00,
2013-08-19 01:33:00,62.1,34.1,0.00,East,86,0.0,0.0,35,0.00,,SKC,0.00,VWS V14.00,2013-08-19 05:33:00,
2013-08-19 01:34:00,61.0,33.9,0.00,East,86,0.0,0.0,36,0.00,,SKC,0.00,VWS V14.00,2013-08-19 05:34:00,
2013-08-19 01:35:00,61.0,33.9,0.00,East,86,0.0,0.0,36,0.00,,SKC,0.00,VWS V14.00,2013-08-19 05:35:00,
2013-08-19 01:38:00,62.1,34.1,0.00,East,86,0.0,0.0,35,0.00,,SKC,0.00,VWS V14.00,2013-08-19 05:38:00,
2013-08-19 01:43:00,61.9,34.0,0.00,East,86,0.0,0.0,35,0.00,,SKC,0.00,VWS V14.00,2013-08-19 05:43:00,
2013-08-19 01:48:00,61.7,33.8,0.00,East,86,0.0,0.0,35,0.00,,SKC,0.00,VWS V14.00,2013-08-19 05:48:00,
2013-08-19 01:53:00,61.5,34.3,0.00,East,86,0.0,0.0,36,0.00,,SKC,0.00,VWS V14.00,2013-08-19 05:53:00,
2013-08-19 01:58:00,61.5,34.3,0.00,East,86,0.0,0.0,36,0.00,,SKC,0.00,VWS V14.00,2013-08-19 05:58:00,
2013-08-19 02:03:00,61.7,34.5,0.00,East,86,0.0,0.0,36,0.00,,SKC,0.00,VWS V14.00,2013-08-19 06:03:00,
2013-08-19 02:08:00,61.5,34.3,0.00,East,86,0.0,0.0,36,0.00,,SKC,0.00,VWS V14.00,2013-08-19 06:08:00,
2013-08-19 02:13:00,61.3,34.2,0.00,East,86,0.0,0.0,36,0.00,,SKC,0.00,VWS V14.00,2013-08-19 06:13:00,
2013-08-19 02:14:00,60.4,33.4,0.00,East,86,0.0,0.0,36,0.00,,SKC,0.00,VWS V14.00,2013-08-19 06:14:00,
2013-08-19 02:15:00,60.3,33.2,0.00,East,86,0.0,0.0,36,0.00,,SKC,0.00,VWS V14.00,2013-08-19 06:15:00,
2013-08-19 02:16:00,60.3,33.2,0.00,East,86,0.0,0.0,36,0.00,,SKC,0.00,VWS V14.00,2013-08-19 06:16:00,
2013-08-19 02:17:00,60.3,33.2,0.00,East,86,0.0,0.0,36,0.00,,SKC,0.00,VWS V14.00,2013-08-19 06:17:00,
2013-08-19 02:18:00,61.3,34.2,0.00,East,86,0.0,0.0,36,0.00,,SKC,0.00,VWS V14.00,2013-08-19 06:18:00,
2013-08-19 02:23:00,61.7,34.5,0.00,East,86,0.0,0.0,36,0.00,,SKC,0.00,VWS V14.00,2013-08-19 06:23:00,
2013-08-19 02:28:00,61.5,34.3,0.00,East,86,0.0,0.0,36,0.00,,SKC,0.00,VWS V14.00,2013-08-19 06:28:00,
2013-08-19 02:33:00,61.3,34.2,0.00,East,86,0.0,0.0,36,0.00,,SKC,0.00,VWS V14.00,2013-08-19 06:33:00,
2013-08-19 02:41:00,61.0,33.9,0.00,East,86,0.0,0.0,36,0.00,,SKC,0.00,VWS V14.00,2013-08-19 06:41:00,
2013-08-19 02:46:00,60.8,33.7,0.00,East,86,0.0,0.0,36,0.00,,SKC,0.00,VWS V14.00,2013-08-19 06:46:00,
2013-08-19 02:51:00,60.6,33.5,0.00,East,86,0.0,0.0,36,0.00,,SKC,0.00,VWS V14.00,2013-08-19 06:51:00,
2013-08-19 02:56:00,60.4,33.4,0.00,East,86,0.0,0.0,36,0.00,,SKC,0.00,VWS V14.00,2013-08-19 06:56:00,
2013-08-19 03:01:00,60.4,33.4,0.00,East,86,0.0,0.0,36,0.00,,SKC,0.00,VWS V14.00,2013-08-19 07:01:00,
2013-08-19 03:06:00,60.3,33.2,0.00,East,86,0.0,0.0,36,0.00,,SKC,0.00,VWS V14.00,2013-08-19 07:06:00,
2013-08-19 03:11:00,60.3,33.2,0.00,East,86,0.0,0.0,36,0.00,,SKC,0.00,VWS V14.00,2013-08-19 07:11:00,
2013-08-19 03:16:00,60.3,33.2,0.00,East,86,0.0,0.0,36,0.00,,SKC,0.00,VWS V14.00,2013-08-19 07:16:00,
2013-08-19 03:21:00,60.4,33.4,0.00,East,86,0.0,0.0,36,0.00,,SKC,0.00,VWS V14.00,2013-08-19 07:21:00,
2013-08-19 03:22:00,59.2,32.3,0.00,East,86,0.0,0.0,36,0.00,,SKC,0.00,VWS V14.00,2013-08-19 07:22:00,
2013-08-19 03:23:00,59.2,32.3,0.00,East,86,0.0,0.0,36,0.00,,SKC,0.00,VWS V14.00,2013-08-19 07:23:00,
2013-08-19 03:24:00,59.2,32.3,0.00,East,86,0.0,0.0,36,0.00,,SKC,0.00,VWS V14.00,2013-08-19 07:24:00,
2013-08-19 03:25:00,59.2,32.3,0.00,East,86,0.0,0.0,36,0.00,,SKC,0.00,VWS V14.00,2013-08-19 07:25:00,
2013-08-19 03:26:00,60.3,33.2,0.00,East,86,0.0,0.0,36,0.00,,SKC,0.00,VWS V14.00,2013-08-19 07:26:00,
2013-08-19 03:27:00,59.2,32.3,0.00,East,86,0.0,0.0,36,0.00,,SKC,0.00,VWS V14.00,2013-08-19 07:27:00,
2013-08-19 03:31:00,60.1,33.1,0.00,East,86,0.0,0.0,36,0.00,,SKC,0.00,VWS V14.00,2013-08-19 07:31:00,
2013-08-19 03:36:00,59.9,32.9,0.00,East,86,0.0,0.0,36,0.00,,SKC,0.00,VWS V14.00,2013-08-19 07:36:00,
2013-08-19 03:41:00,59.9,32.9,0.00,East,86,0.0,0.0,36,0.00,,SKC,0.00,VWS V14.00,2013-08-19 07:41:00,
2013-08-19 03:46:00,59.7,32.7,0.00,East,86,0.0,0.0,36,0.00,,SKC,0.00,VWS V14.00,2013-08-19 07:46:00,
2013-08-19 03:51:00,59.7,32.7,0.00,East,86,0.0,0.0,36,0.00,,SKC,0.00,VWS V14.00,2013-08-19 07:51:00,
2013-08-19 03:56:00,59.7,32.7,0.00,East,86,0.0,0.0,36,0.00,,SKC,0.00,VWS V14.00,2013-08-19 07:56:00,
2013-08-19 04:01:00,59.5,32.6,0.00,East,86,0.0,0.0,36,0.00,,SKC,0.00,VWS V14.00,2013-08-19 08:01:00,
2013-08-19 04:06:00,59.5,32.6,0.00,East,86,0.0,0.0,36,0.00,,SKC,0.00,VWS V14.00,2013-08-19 08:06:00,
2013-08-19 04:11:00,59.5,32.6,0.00,East,86,0.0,0.0,36,0.00,,SKC,0.00,VWS V14.00,2013-08-19 08:11:00,
2013-08-19 04:16:00,59.5,32.6,0.00,East,86,0.0,0.0,36,0.00,,SKC,0.00,VWS V14.00,2013-08-19 08:16:00,
2013-08-19 04:21:00,59.4,32.4,0.00,East,86,0.0,0.0,36,0.00,,SKC,0.00,VWS V14.00,2013-08-19 08:21:00,
2013-08-19 04:26:00,59.2,32.3,0.00,East,86,0.0,0.0,36,0.00,,SKC,0.00,VWS V14.00,2013-08-19 08:26:00,
2013-08-19 04:33:00,59.2,32.3,0.00,East,86,0.0,0.0,36,0.00,,SKC,0.00,VWS V14.00,2013-08-19 08:33:00,
2013-08-19 04:38:00,59.2,32.3,0.00,East,86,0.0,0.0,36,0.00,,SKC,0.00,VWS V14.00,2013-08-19 08:38:00,
2013-08-19 04:43:00,59.2,32.3,0.00,East,86,0.0,0.0,36,0.00,,SKC,0.00,VWS V14.00,2013-08-19 08:43:00,
2013-08-19 04:48:00,59.2,32.3,0.00,East,86,0.0,0.0,36,0.00,,SKC,0.00,VWS V14.00,2013-08-19 08:48:00,
2013-08-19 04:53:00,58.8,32.6,0.00,East,86,0.0,0.0,37,0.00,,SKC,0.00,VWS V14.00,2013-08-19 08:53:00,
2013-08-19 04:58:00,58.6,32.5,0.00,East,86,0.0,0.0,37,0.00,,SKC,0.00,VWS V14.00,2013-08-19 08:58:00,
2013-08-19 05:03:00,58.6,32.5,0.00,East,86,0.0,0.0,37,0.00,,SKC,0.00,VWS V14.00,2013-08-19 09:03:00,
2013-08-19 05:08:00,58.8,32.6,0.00,East,86,0.0,0.0,37,0.00,,SKC,0.00,VWS V14.00,2013-08-19 09:08:00,
2013-08-19 05:13:00,59.0,32.1,0.00,East,86,0.0,0.0,36,0.00,,SKC,0.00,VWS V14.00,2013-08-19 09:13:00,
2013-08-19 05:18:00,58.8,32.6,0.00,East,86,0.0,0.0,37,0.00,,SKC,0.00,VWS V14.00,2013-08-19 09:18:00,
2013-08-19 05:22:00,58.8,32.6,0.00,East,86,0.0,0.0,37,0.00,,SKC,0.00,VWS V14.00,2013-08-19 09:22:00,
2013-08-19 05:23:00,59.0,32.1,0.00,East,86,0.0,0.0,36,0.00,,SKC,0.00,VWS V14.00,2013-08-19 09:23:00,
2013-08-19 05:24:00,58.8,32.6,0.00,East,86,0.0,0.0,37,0.00,,SKC,0.00,VWS V14.00,2013-08-19 09:24:00,
2013-08-19 05:25:00,58.8,32.6,0.00,East,86,0.0,0.0,37,0.00,,SKC,0.00,VWS V14.00,2013-08-19 09:25:00,
2013-08-19 05:26:00,58.8,32.6,0.00,East,86,0.0,0.0,37,0.00,,SKC,0.00,VWS V14.00,2013-08-19 09:26:00,
2013-08-19 05:27:00,58.6,32.5,0.00,East,86,0.0,0.0,37,0.00,,SKC,0.00,VWS V14.00,2013-08-19 09:27:00,
2013-08-19 05:28:00,58.8,32.6,0.00,East,86,0.0,0.0,37,0.00,,SKC,0.00,VWS V14.00,2013-08-19 09:28:00,
2013-08-19 05:31:00,58.3,32.2,0.00,East,86,0.0,0.0,37,0.00,,SKC,0.00,VWS V14.00,2013-08-19 09:31:00,
2013-08-19 05:32:00,58.3,32.2,0.00,East,86,0.0,0.0,37,0.00,,SKC,0.00,VWS V14.00,2013-08-19 09:32:00,
2013-08-19 05:33:00,58.8,32.6,0.00,East,86,0.0,0.0,37,0.00,,SKC,0.00,VWS V14.00,2013-08-19 09:33:00,
2013-08-19 05:34:00,58.1,32.0,0.00,East,86,0.0,0.0,37,0.00,,SKC,0.00,VWS V14.00,2013-08-19 09:34:00,
2013-08-19 05:35:00,58.3,32.2,0.00,East,86,0.0,0.0,37,0.00,,SKC,0.00,VWS V14.00,2013-08-19 09:35:00,
2013-08-19 05:36:00,58.3,32.2,0.00,East,86,0.0,0.0,37,0.00,,SKC,0.00,VWS V14.00,2013-08-19 09:36:00,
2013-08-19 05:37:00,58.3,32.2,0.00,East,86,0.0,0.0,37,0.00,,SKC,0.00,VWS V14.00,2013-08-19 09:37:00,
2013-08-19 05:38:00,59.0,32.1,0.00,East,86,0.0,0.0,36,0.00,,SKC,0.00,VWS V14.00,2013-08-19 09:38:00,
2013-08-19 05:43:00,59.2,33.0,0.00,East,86,0.0,0.0,37,0.00,,SKC,0.00,VWS V14.00,2013-08-19 09:43:00,
2013-08-19 05:48:00,59.2,33.0,0.00,East,86,0.0,0.0,37,0.00,,SKC,0.00,VWS V14.00,2013-08-19 09:48:00,
2013-08-19 05:53:00,59.0,32.8,0.00,East,86,0.0,0.0,37,0.00,,SKC,0.00,VWS V14.00,2013-08-19 09:53:00,
2013-08-19 05:58:00,58.8,32.6,0.00,East,86,0.0,0.0,37,0.00,,SKC,0.00,VWS V14.00,2013-08-19 09:58:00,
2013-08-19 06:03:00,59.0,32.8,0.00,East,86,0.0,0.0,37,0.00,,SKC,0.00,VWS V14.00,2013-08-19 10:03:00,
2013-08-19 06:08:00,59.4,33.1,0.00,East,86,0.0,0.0,37,0.00,,SKC,0.00,VWS V14.00,2013-08-19 10:08:00,
2013-08-19 06:13:00,58.8,32.6,0.00,East,86,0.0,0.0,37,0.00,,SKC,0.00,VWS V14.00,2013-08-19 10:13:00,
2013-08-19 06:18:00,58.6,32.5,0.00,East,86,0.0,0.0,37,0.00,,SKC,0.00,VWS V14.00,2013-08-19 10:18:00,
2013-08-19 06:23:00,58.6,32.5,0.00,East,86,0.0,0.0,37,0.00,,SKC,0.00,VWS V14.00,2013-08-19 10:23:00,
2013-08-19 06:26:00,59.7,33.4,0.00,East,86,0.0,0.0,37,0.00,,SKC,0.00,VWS V14.00,2013-08-19 10:26:00,
2013-08-19 06:27:00,59.7,33.4,0.00,East,86,0.0,0.0,37,0.00,,SKC,0.00,VWS V14.00,2013-08-19 10:27:00,
2013-08-19 06:28:00,58.8,32.6,0.00,East,86,0.0,0.0,37,0.00,,SKC,0.00,VWS V14.00,2013-08-19 10:28:00,
2013-08-19 06:29:00,59.7,33.4,0.00,East,86,0.0,0.0,37,0.00,,SKC,0.00,VWS V14.00,2013-08-19 10:29:00,
2013-08-19 06:33:00,58.8,32.6,0.00,East,86,0.0,0.0,37,0.00,,SKC,0.00,VWS V14.00,2013-08-19 10:33:00,
2013-08-19 06:38:00,58.5,32.3,0.00,East,86,0.0,0.0,37,0.00,,SKC,0.00,VWS V14.00,2013-08-19 10:38:00,
2013-08-19 06:43:00,58.3,32.2,0.00,East,86,0.0,0.0,37,0.00,,SKC,0.00,VWS V14.00,2013-08-19 10:43:00,
2013-08-19 06:48:00,58.5,32.3,0.00,East,86,0.0,0.0,37,0.00,,SKC,0.00,VWS V14.00,2013-08-19 10:48:00,
2013-08-19 06:53:00,58.1,32.0,0.00,East,86,0.0,0.0,37,0.00,,SKC,0.00,VWS V14.00,2013-08-19 10:53:00,
2013-08-19 06:58:00,58.3,32.2,0.00,East,86,0.0,0.0,37,0.00,,SKC,0.00,VWS V14.00,2013-08-19 10:58:00,
2013-08-19 07:03:00,58.3,32.2,0.00,East,86,0.0,0.0,37,0.00,,SKC,0.00,VWS V14.00,2013-08-19 11:03:00,
2013-08-19 07:08:00,58.5,32.3,0.00,East,86,0.0,0.0,37,0.00,,SKC,0.00,VWS V14.00,2013-08-19 11:08:00,
2013-08-19 07:13:00,58.5,32.3,0.00,East,86,0.0,0.0,37,0.00,,SKC,0.00,VWS V14.00,2013-08-19 11:13:00,
2013-08-19 07:18:00,58.6,32.5,0.00,East,86,0.0,0.0,37,0.00,,SKC,0.00,VWS V14.00,2013-08-19 11:18:00,
2013-08-19 07:22:00,72.7,41.2,0.00,East,86,0.0,0.0,32,0.00,,SKC,0.00,VWS V14.00,2013-08-19 11:22:00,
2013-08-19 07:23:00,59.5,33.3,0.00,East,86,0.0,0.0,37,0.00,,SKC,0.00,VWS V14.00,2013-08-19 11:23:00,
2013-08-19 07:24:00,73.4,41.0,0.00,East,86,0.0,0.0,31,0.00,,SKC,0.00,VWS V14.00,2013-08-19 11:24:00,
2013-08-19 07:25:00,73.8,41.3,0.00,East,86,0.0,0.0,31,0.00,,SKC,0.00,VWS V14.00,2013-08-19 11:25:00,
2013-08-19 07:26:00,74.3,41.7,0.00,East,86,0.0,0.0,31,0.00,,SKC,0.00,VWS V14.00,2013-08-19 11:26:00,
2013-08-19 07:28:00,59.5,33.3,0.00,East,86,0.0,0.0,37,0.00,,SKC,0.00,VWS V14.00,2013-08-19 11:28:00,
2013-08-19 07:31:00,75.7,43.0,0.00,East,86,0.0,0.0,31,0.00,,SKC,0.00,VWS V14.00,2013-08-19 11:31:00,
2013-08-19 07:32:00,76.3,43.5,0.00,East,86,0.0,0.0,31,0.00,,SKC,0.00,VWS V14.00,2013-08-19 11:32:00,
2013-08-19 07:33:00,59.7,33.4,0.00,East,86,0.0,0.0,37,0.00,,SKC,0.00,VWS V14.00,2013-08-19 11:33:00,
2013-08-19 07:34:00,76.6,43.8,0.00,East,86,0.0,0.0,31,0.00,,SKC,0.00,VWS V14.00,2013-08-19 11:34:00,
2013-08-19 07:35:00,77.0,44.1,0.00,East,86,0.0,0.0,31,0.00,,SKC,0.00,VWS V14.00,2013-08-19 11:35:00,
2013-08-19 07:38:00,59.9,33.6,0.00,East,86,0.0,0.0,37,0.00,,SKC,0.00,VWS V14.00,2013-08-19 11:38:00,
2013-08-19 07:43:00,60.6,34.2,0.00,East,86,0.0,0.0,37,0.00,,SKC,0.00,VWS V14.00,2013-08-19 11:43:00,
2013-08-19 07:48:00,62.6,35.3,0.00,East,86,0.0,0.0,36,0.00,,SKC,0.00,VWS V14.00,2013-08-19 11:48:00,
2013-08-19 07:53:00,64.9,36.7,0.00,East,86,0.0,0.0,35,0.00,,SKC,0.00,VWS V14.00,2013-08-19 11:53:00,
2013-08-19 07:58:00,66.2,37.0,0.00,East,86,0.0,0.0,34,0.00,,SKC,0.00,VWS V14.00,2013-08-19 11:58:00,
2013-08-19 08:03:00,66.7,37.5,0.00,East,86,0.0,0.0,34,0.00,,SKC,0.00,VWS V14.00,2013-08-19 12:03:00,
2013-08-19 08:04:00,80.6,46.3,0.00,East,86,0.0,0.0,30,0.00,,SKC,0.00,VWS V14.00,2013-08-19 12:04:00,
2013-08-19 08:05:00,80.6,46.3,0.00,East,86,0.0,0.0,30,0.00,,SKC,0.00,VWS V14.00,2013-08-19 12:05:00,
2013-08-19 08:06:00,79.7,45.6,0.00,East,86,0.0,0.0,30,0.00,,SKC,0.00,VWS V14.00,2013-08-19 12:06:00,
2013-08-19 08:07:00,80.2,46.0,0.00,East,86,0.0,0.0,30,0.00,,SKC,0.00,VWS V14.00,2013-08-19 12:07:00,
2013-08-19 08:08:00,68.2,38.0,0.00,East,86,0.0,0.0,33,0.00,,SKC,0.00,VWS V14.00,2013-08-19 12:08:00,
2013-08-19 08:13:00,69.3,39.0,0.00,East,86,0.0,0.0,33,0.00,,SKC,0.00,VWS V14.00,2013-08-19 12:13:00,
2013-08-19 08:15:00,81.7,47.3,0.00,East,86,0.0,0.0,30,0.00,,SKC,0.00,VWS V14.00,2013-08-19 12:15:00,
2013-08-19 08:16:00,81.7,47.3,0.00,East,86,0.0,0.0,30,0.00,,SKC,0.00,VWS V14.00,2013-08-19 12:16:00,
2013-08-19 08:17:00,80.6,46.3,0.00,East,86,0.0,0.0,30,0.00,,SKC,0.00,VWS V14.00,2013-08-19 12:17:00,
2013-08-19 08:18:00,70.3,39.1,0.00,East,86,0.0,0.0,32,0.00,,SKC,0.00,VWS V14.00,2013-08-19 12:18:00,
2013-08-19 08:19:00,81.3,47.0,0.00,East,86,0.0,0.0,30,0.00,,SKC,0.00,VWS V14.00,2013-08-19 12:19:00,
2013-08-19 08:20:00,82.9,47.5,0.00,East,86,0.0,0.0,29,0.00,,SKC,0.00,VWS V14.00,2013-08-19 12:20:00,
2013-08-19 08:21:00,83.1,47.6,0.00,East,86,0.0,0.0,29,0.00,,SKC,0.00,VWS V14.00,2013-08-19 12:21:00,
2013-08-19 08:23:00,71.4,40.0,0.00,East,86,0.0,0.0,32,0.00,,SKC,0.00,VWS V14.00,2013-08-19 12:23:00,
2013-08-19 08:28:00,72.1,40.7,0.00,East,86,0.0,0.0,32,0.00,,SKC,0.00,VWS V14.00,2013-08-19 12:28:00,
2013-08-19 08:33:00,73.6,41.1,0.00,East,86,0.0,0.0,31,0.00,,SKC,0.00,VWS V14.00,2013-08-19 12:33:00,
2013-08-19 08:38:00,75.6,42.8,0.00,East,86,0.0,0.0,31,0.00,,SKC,0.00,VWS V14.00,2013-08-19 12:38:00,
2013-08-19 08:43:00,77.5,44.5,0.00,East,86,0.0,0.0,31,0.00,,SKC,0.00,VWS V14.00,2013-08-19 12:43:00,
2013-08-19 08:48:00,77.7,44.7,0.00,East,86,0.0,0.0,31,0.00,,SKC,0.00,VWS V14.00,2013-08-19 12:48:00,
2013-08-19 08:53:00,79.3,45.2,0.00,East,86,0.0,0.0,30,0.00,,SKC,0.00,VWS V14.00,2013-08-19 12:53:00,
2013-08-19 08:58:00,81.0,46.6,0.00,East,86,0.0,0.0,30,0.00,,SKC,0.00,VWS V14.00,2013-08-19 12:58:00,
2013-08-19 09:03:00,81.7,47.3,0.00,East,86,0.0,0.0,30,0.00,,SKC,0.00,VWS V14.00,2013-08-19 13:03:00,
2013-08-19 09:08:00,80.6,46.3,0.00,East,86,0.0,0.0,30,0.00,,SKC,0.00,VWS V14.00,2013-08-19 13:08:00,
2013-08-19 09:13:00,80.4,46.2,0.00,East,86,0.0,0.0,30,0.00,,SKC,0.00,VWS V14.00,2013-08-19 13:13:00,
2013-08-19 09:18:00,80.4,46.2,0.00,East,86,0.0,0.0,30,0.00,,SKC,0.00,VWS V14.00,2013-08-19 13:18:00,
2013-08-19 09:22:00,84.7,49.0,0.00,ENE,76,0.0,0.0,29,0.00,,SKC,0.00,VWS V14.00,2013-08-19 13:22:00,
2013-08-19 09:23:00,81.7,47.3,0.00,East,86,0.0,0.0,30,0.00,,SKC,0.00,VWS V14.00,2013-08-19 13:23:00,
2013-08-19 09:24:00,84.2,48.5,0.00,ENE,76,0.0,0.0,29,0.00,,SKC,0.00,VWS V14.00,2013-08-19 13:24:00,
2013-08-19 09:25:00,84.2,48.5,0.00,ENE,76,0.0,0.0,29,0.00,,SKC,0.00,VWS V14.00,2013-08-19 13:25:00,
2013-08-19 09:26:00,84.0,48.4,0.00,ENE,76,0.0,0.0,29,0.00,,SKC,0.00,VWS V14.00,2013-08-19 13:26:00,
2013-08-19 09:28:00,83.1,47.6,0.00,East,86,0.0,0.0,29,0.00,,SKC,0.00,VWS V14.00,2013-08-19 13:28:00,
2013-08-19 09:33:00,81.0,46.6,0.00,East,86,0.0,0.0,30,0.00,,SKC,0.00,VWS V14.00,2013-08-19 13:33:00,
2013-08-19 09:38:00,79.7,45.6,0.00,East,86,2.7,3.1,30,0.00,,SKC,0.00,VWS V14.00,2013-08-19 13:38:00,
2013-08-19 09:43:00,79.5,45.4,0.00,East,86,2.7,4.0,30,0.00,,SKC,0.00,VWS V14.00,2013-08-19 13:43:00,
2013-08-19 09:48:00,81.7,47.3,0.00,East,84,0.0,4.0,30,0.00,,SKC,0.00,VWS V14.00,2013-08-19 13:48:00,
2013-08-19 09:53:00,83.7,48.1,0.00,ENE,66,0.0,4.0,29,0.00,,SKC,0.00,VWS V14.00,2013-08-19 13:53:00,
2013-08-19 09:58:00,85.6,49.8,0.00,ENE,66,0.0,4.0,29,0.00,,SKC,0.00,VWS V14.00,2013-08-19 13:58:00,
2013-08-19 10:03:00,88.2,51.0,0.00,ENE,66,0.0,0.0,28,0.00,,SKC,0.00,VWS V14.00,2013-08-19 14:03:00,
2013-08-19 10:08:00,89.8,52.4,0.00,ENE,71,0.0,0.0,28,0.00,,SKC,0.00,VWS V14.00,2013-08-19 14:08:00,
2013-08-19 10:13:00,91.0,53.4,0.00,ENE,71,0.0,0.0,28,0.00,,SKC,0.00,VWS V14.00,2013-08-19 14:13:00,
2013-08-19 10:18:00,90.3,52.8,0.00,ENE,71,0.0,0.0,28,0.00,,SKC,0.00,VWS V14.00,2013-08-19 14:18:00,
2013-08-19 10:23:00,90.7,53.1,0.00,ENE,71,0.0,0.0,28,0.00,,SKC,0.00,VWS V14.00,2013-08-19 14:23:00,
2013-08-19 10:28:00,86.2,50.2,0.00,ENE,76,0.0,0.0,29,0.00,,SKC,0.00,VWS V14.00,2013-08-19 14:28:00,
2013-08-19 10:31:00,82.8,47.3,0.00,NNE,14,0.0,4.9,29,0.00,,SKC,0.00,VWS V14.00,2013-08-19 14:31:00,
2013-08-19 10:32:00,83.1,47.6,0.00,NE,42,2.2,4.9,29,0.00,,SKC,0.00,VWS V14.00,2013-08-19 14:32:00,
2013-08-19 10:33:00,84.2,48.5,0.00,ENE,76,0.0,0.0,29,0.00,,SKC,0.00,VWS V14.00,2013-08-19 14:33:00,
2013-08-19 10:34:00,83.3,47.8,0.00,East,87,3.1,4.9,29,0.00,,SKC,0.00,VWS V14.00,2013-08-19 14:34:00,
2013-08-19 10:35:00,83.3,47.8,0.00,SE,136,4.9,4.9,29,0.00,,SKC,0.00,VWS V14.00,2013-08-19 14:35:00,
2013-08-19 10:38:00,83.1,47.6,0.00,SE,139,0.0,0.0,29,0.00,,SKC,0.00,VWS V14.00,2013-08-19 14:38:00,
2013-08-19 10:43:00,82.6,47.1,0.00,SSE,157,2.2,4.0,29,0.00,,SKC,0.00,VWS V14.00,2013-08-19 14:43:00,
2013-08-19 10:48:00,83.5,47.9,0.00,NNW,335,0.0,4.0,29,0.00,,SKC,0.00,VWS V14.00,2013-08-19 14:48:00,
2013-08-19 10:53:00,82.9,47.5,0.00,NNW,335,0.0,4.0,29,0.00,,SKC,0.00,VWS V14.00,2013-08-19 14:53:00,
2013-08-19 10:58:00,80.8,46.5,0.00,West,272,0.0,4.0,30,0.00,,SKC,0.00,VWS V14.00,2013-08-19 14:58:00,
2013-08-19 11:03:00,80.1,45.9,0.00,North,353,4.0,4.0,30,0.00,,SKC,0.00,VWS V14.00,2013-08-19 15:03:00,
2013-08-19 11:08:00,79.9,45.7,0.00,NW,324,3.1,4.0,30,0.00,,SKC,0.00,VWS V14.00,2013-08-19 15:08:00,
2013-08-19 11:13:00,79.9,45.7,0.00,WSW,257,0.0,4.9,30,0.00,,SKC,0.00,VWS V14.00,2013-08-19 15:13:00,
2013-08-19 11:18:00,81.0,46.6,0.00,NW,313,0.0,4.9,30,0.00,,SKC,0.00,VWS V14.00,2013-08-19 15:18:00,
2013-08-19 11:22:00,81.5,47.1,0.00,WNW,287,0.0,5.4,30,0.00,,SKC,0.00,VWS V14.00,2013-08-19 15:22:00,
2013-08-19 11:23:00,82.4,47.0,0.00,NNW,346,0.0,4.9,29,0.00,,SKC,0.00,VWS V14.00,2013-08-19 15:23:00,
2013-08-19 11:24:00,81.3,47.0,0.00,WNW,286,0.0,5.4,30,0.00,,SKC,0.00,VWS V14.00,2013-08-19 15:24:00,
2013-08-19 11:25:00,81.5,47.1,0.00,WNW,287,0.0,5.4,30,0.00,,SKC,0.00,VWS V14.00,2013-08-19 15:25:00,
2013-08-19 11:26:00,81.7,47.3,0.00,SE,131,3.6,5.4,30,0.00,,SKC,0.00,VWS V14.00,2013-08-19 15:26:00,
2013-08-19 11:28:00,82.8,47.3,0.00,NNW,346,0.0,4.9,29,0.00,,SKC,0.00,VWS V14.00,2013-08-19 15:28:00,
2013-08-19 11:31:00,82.2,47.7,0.00,SE,139,2.7,5.4,30,0.00,,SKC,0.00,VWS V14.00,2013-08-19 15:31:00,
2013-08-19 11:32:00,82.4,47.0,0.00,SE,143,4.9,5.4,29,0.00,,SKC,0.00,VWS V14.00,2013-08-19 15:32:00,
2013-08-19 11:33:00,82.6,47.1,0.00,NNE,20,0.0,4.9,29,0.00,,SKC,0.00,VWS V14.00,2013-08-19 15:33:00,
2013-08-19 11:34:00,82.8,47.3,0.00,SSE,147,6.3,6.3,29,0.00,,SKC,0.00,VWS V14.00,2013-08-19 15:34:00,
2013-08-19 11:35:00,83.1,47.6,0.00,SSE,149,5.4,6.3,29,0.00,,SKC,0.00,VWS V14.00,2013-08-19 15:35:00,
2013-08-19 11:36:00,83.1,47.6,0.00,SE,137,5.4,6.3,29,0.00,,SKC,0.00,VWS V14.00,2013-08-19 15:36:00,
2013-08-19 11:37:00,83.3,47.8,0.00,SSE,148,5.4,6.3,29,0.00,,SKC,0.00,VWS V14.00,2013-08-19 15:37:00,
2013-08-19 11:38:00,82.6,47.1,0.00,NNE,14,0.0,4.9,29,0.00,,SKC,0.00,VWS V14.00,2013-08-19 15:38:00,
2013-08-19 11:43:00,83.1,47.6,0.00,SE,140,4.0,5.4,29,0.00,,SKC,0.00,VWS V14.00,2013-08-19 15:43:00,
2013-08-19 11:48:00,83.1,47.6,0.00,NNW,335,3.1,5.4,29,0.00,,SKC,0.00,VWS V14.00,2013-08-19 15:48:00,
2013-08-19 11:53:00,83.5,47.9,0.00,NNE,16,0.0,5.4,29,0.00,,SKC,0.00,VWS V14.00,2013-08-19 15:53:00,
2013-08-19 11:58:00,83.3,47.8,0.00,North,0,0.0,5.4,29,0.00,,SKC,0.00,VWS V14.00,2013-08-19 15:58:00,
2013-08-19 12:03:00,83.5,47.9,0.00,SE,142,0.0,3.1,29,0.00,,SKC,0.00,VWS V14.00,2013-08-19 16:03:00,
2013-08-19 12:08:00,83.3,47.8,0.00,NNW,332,3.6,4.0,29,0.00,,SKC,0.00,VWS V14.00,2013-08-19 16:08:00,
2013-08-19 12:13:00,83.1,47.6,0.00,SSE,151,0.0,4.0,29,0.00,,SKC,0.00,VWS V14.00,2013-08-19 16:13:00,
2013-08-19 12:16:00,84.2,48.5,0.00,SE,139,0.0,7.6,29,0.00,,SKC,0.00,VWS V14.00,2013-08-19 16:16:00,
2013-08-19 12:17:00,84.2,48.5,0.00,SE,140,0.0,7.6,29,0.00,,SKC,0.00,VWS V14.00,2013-08-19 16:17:00,
2013-08-19 12:18:00,82.6,47.1,0.00,ENE,60,0.0,4.0,29,0.00,,SKC,0.00,VWS V14.00,2013-08-19 16:18:00,
2013-08-19 12:19:00,83.8,48.2,0.00,SE,140,2.2,7.6,29,0.00,,SKC,0.00,VWS V14.00,2013-08-19 16:19:00,
2013-08-19 12:20:00,83.8,48.2,0.00,SE,140,2.7,7.6,29,0.00,,SKC,0.00,VWS V14.00,2013-08-19 16:20:00,
2013-08-19 12:23:00,83.3,47.8,0.00,West,259,3.1,4.0,29,0.00,,SKC,0.00,VWS V14.00,2013-08-19 16:23:00,
2013-08-19 12:27:00,82.2,47.7,0.00,East,89,2.7,7.6,30,0.00,,SKC,0.00,VWS V14.00,2013-08-19 16:27:00,
2013-08-19 12:28:00,82.2,47.7,0.00,NNW,334,4.9,5.4,30,0.00,,SKC,0.00,VWS V14.00,2013-08-19 16:28:00,
2013-08-19 12:29:00,82.0,47.6,0.00,East,80,2.7,7.6,30,0.00,,SKC,0.00,VWS V14.00,2013-08-19 16:29:00,
2013-08-19 12:30:00,81.9,47.4,0.00,East,80,0.0,7.6,30,0.00,,SKC,0.00,VWS V14.00,2013-08-19 16:30:00,
2013-08-19 12:31:00,81.7,47.3,0.00,East,80,0.0,7.6,30,0.00,,SKC,0.00,VWS V14.00,2013-08-19 16:31:00,
2013-08-19 12:32:00,81.7,47.3,0.00,East,80,0.0,7.6,30,0.00,,SKC,0.00,VWS V14.00,2013-08-19 16:32:00,
2013-08-19 12:33:00,81.5,47.1,0.00,WNW,287,0.0,5.4,30,0.00,,SKC,0.00,VWS V14.00,2013-08-19 16:33:00,
2013-08-19 12:38:00,82.2,47.7,0.00,ENE,76,3.6,5.4,30,0.00,,SKC,0.00,VWS V14.00,2013-08-19 16:38:00,
2013-08-19 12:43:00,83.1,47.6,0.00,SE,146,4.0,6.3,29,0.00,,SKC,0.00,VWS V14.00,2013-08-19 16:43:00,
2013-08-19 12:48:00,84.0,48.4,0.00,SE,135,2.7,6.3,29,0.00,,SKC,0.00,VWS V14.00,2013-08-19 16:48:00,
2013-08-19 12:53:00,83.7,48.1,0.00,SSE,149,4.9,6.3,29,0.00,,SKC,0.00,VWS V14.00,2013-08-19 16:53:00,
2013-08-19 12:58:00,83.7,48.1,0.00,SE,136,4.0,7.6,29,0.00,,SKC,0.00,VWS V14.00,2013-08-19 16:58:00,
2013-08-19 13:03:00,83.8,48.2,0.00,ENE,73,0.0,7.6,29,0.00,,SKC,0.00,VWS V14.00,2013-08-19 17:03:00,
2013-08-19 13:08:00,84.2,48.5,0.00,NW,315,2.7,7.6,29,0.00,,SKC,0.00,VWS V14.00,2013-08-19 17:08:00,
2013-08-19 13:13:00,84.4,48.7,0.00,WNW,293,0.0,7.6,29,0.00,,SKC,0.00,VWS V14.00,2013-08-19 17:13:00,
2013-08-19 13:18:00,84.7,49.0,0.00,WNW,292,0.0,7.6,29,0.00,,SKC,0.00,VWS V14.00,2013-08-19 17:18:00,
2013-08-19 13:22:00,88.2,51.0,0.00,SE,143,0.0,5.8,28,0.00,,SKC,0.00,VWS V14.00,2013-08-19 17:22:00,
2013-08-19 13:23:00,84.4,48.7,0.00,SE,139,3.1,7.6,29,0.00,,SKC,0.00,VWS V14.00,2013-08-19 17:23:00,
2013-08-19 13:24:00,88.5,51.3,0.00,ESE,112,3.1,5.8,28,0.00,,SKC,0.00,VWS V14.00,2013-08-19 17:24:00,
2013-08-19 13:25:00,89.2,51.9,0.00,ESE,112,0.0,5.8,28,0.00,,SKC,0.00,VWS V14.00,2013-08-19 17:25:00,
2013-08-19 13:26:00,89.6,52.2,0.00,ESE,112,0.0,5.8,28,0.00,,SKC,0.00,VWS V14.00,2013-08-19 17:26:00,
2013-08-19 13:28:00,83.8,48.2,0.00,SE,140,0.0,7.6,29,0.00,,SKC,0.00,VWS V14.00,2013-08-19 17:28:00,
2013-08-19 13:33:00,82.8,47.3,0.00,East,94,0.0,7.6,29,0.00,,SKC,0.00,VWS V14.00,2013-08-19 17:33:00,
2013-08-19 13:38:00,81.9,47.4,0.00,East,80,2.7,7.6,30,0.00,,SKC,0.00,VWS V14.00,2013-08-19 17:38:00,
2013-08-19 13:43:00,81.7,47.3,0.00,East,80,0.0,7.6,30,0.00,,SKC,0.00,VWS V14.00,2013-08-19 17:43:00,
2013-08-19 13:48:00,81.1,46.8,0.00,NW,324,3.6,7.6,30,0.00,,SKC,0.00,VWS V14.00,2013-08-19 17:48:00,
2013-08-19 13:53:00,82.4,47.0,0.00,ESE,104,0.0,7.6,29,0.00,,SKC,0.00,VWS V14.00,2013-08-19 17:53:00,
2013-08-19 13:54:00,84.0,48.4,0.00,ESE,117,2.2,6.3,29,0.00,,SKC,0.00,VWS V14.00,2013-08-19 17:54:00,
2013-08-19 13:55:00,84.0,48.4,0.00,ENE,73,3.6,6.3,29,0.00,,SKC,0.00,VWS V14.00,2013-08-19 17:55:00,
2013-08-19 13:56:00,83.8,48.2,0.00,ENE,73,2.7,6.3,29,0.00,,SKC,0.00,VWS V14.00,2013-08-19 17:56:00,
2013-08-19 13:57:00,83.8,48.2,0.00,East,79,0.0,6.3,29,0.00,,SKC,0.00,VWS V14.00,2013-08-19 17:57:00,
2013-08-19 13:58:00,83.7,48.1,0.00,SE,141,0.0,7.6,29,0.00,,SKC,0.00,VWS V14.00,2013-08-19 17:58:00,
2013-08-19 14:03:00,84.4,48.7,0.00,SE,133,3.6,4.5,29,0.00,,SKC,0.00,VWS V14.00,2013-08-19 18:03:00,
2013-08-19 14:05:00,85.5,49.6,0.00,East,79,0.0,6.3,29,0.00,,SKC,0.00,VWS V14.00,2013-08-19 18:05:00,
2013-08-19 14:06:00,85.5,49.6,0.00,East,79,0.0,6.3,29,0.00,,SKC,0.00,VWS V14.00,2013-08-19 18:06:00,
2013-08-19 14:07:00,85.5,49.6,0.00,East,79,0.0,6.3,29,0.00,,SKC,0.00,VWS V14.00,2013-08-19 18:07:00,
2013-08-19 14:08:00,84.7,49.0,0.00,East,84,3.1,5.4,29,0.00,,SKC,0.00,VWS V14.00,2013-08-19 18:08:00,
2013-08-19 14:09:00,85.3,49.5,0.00,South,171,3.1,6.3,29,0.00,,SKC,0.00,VWS V14.00,2013-08-19 18:09:00,
2013-08-19 14:13:00,84.7,49.0,0.00,SSE,151,5.8,5.8,29,0.00,,SKC,0.00,VWS V14.00,2013-08-19 18:13:00,
2013-08-19 14:18:00,84.2,48.5,0.00,SE,137,3.1,5.8,29,0.00,,SKC,0.00,VWS V14.00,2013-08-19 18:18:00,
2013-08-19 14:23:00,85.5,49.6,0.00,SE,125,2.7,5.8,29,0.00,,SKC,0.00,VWS V14.00,2013-08-19 18:23:00,
2013-08-19 14:28:00,87.4,51.3,0.00,SE,143,0.0,5.8,29,0.00,,SKC,0.00,VWS V14.00,2013-08-19 18:28:00,
2013-08-19 14:31:00,89.1,51.8,0.00,NNW,336,3.6,6.3,28,0.00,,SKC,0.00,VWS V14.00,2013-08-19 18:31:00,
2013-08-19 14:32:00,88.5,51.3,0.00,NNW,329,2.2,6.3,28,0.00,,SKC,0.00,VWS V14.00,2013-08-19 18:32:00,
2013-08-19 14:33:00,88.9,51.6,0.00,ESE,112,2.7,5.8,28,0.00,,SKC,0.00,VWS V14.00,2013-08-19 18:33:00,
2013-08-19 14:38:00,90.9,53.3,0.00,ENE,67,4.0,5.8,28,0.00,,SKC,0.00,VWS V14.00,2013-08-19 18:38:00,
2013-08-19 14:43:00,95.2,56.0,0.00,SW,223,2.7,5.8,27,0.00,,SKC,0.00,VWS V14.00,2013-08-19 18:43:00,
2013-08-19 14:48:00,93.9,54.9,0.00,SW,223,0.0,5.8,27,0.00,,SKC,0.00,VWS V14.00,2013-08-19 18:48:00,
2013-08-19 14:53:00,90.3,52.8,0.00,NE,51,2.2,5.8,28,0.00,,SKC,0.00,VWS V14.00,2013-08-19 18:53:00,
2013-08-19 14:58:00,87.1,51.0,0.00,ENE,66,6.3,6.3,29,0.00,,SKC,0.00,VWS V14.00,2013-08-19 18:58:00,
2013-08-19 15:03:00,84.0,48.4,0.00,ESE,117,2.2,6.3,29,0.00,,SKC,0.00,VWS V14.00,2013-08-19 19:03:00,
2013-08-19 15:08:00,84.0,48.4,0.00,East,79,0.0,6.3,29,0.00,,SKC,0.00,VWS V14.00,2013-08-19 19:08:00,
2013-08-19 15:13:00,86.0,50.1,0.00,East,79,0.0,6.3,29,0.00,,SKC,0.00,VWS V14.00,2013-08-19 19:13:00,
2013-08-19 15:18:00,85.1,49.3,0.00,South,171,0.0,6.3,29,0.00,,SKC,0.00,VWS V14.00,2013-08-19 19:18:00,
2013-08-19 15:22:00,97.2,56.6,0.00,NE,49,2.7,6.3,26,0.00,,SKC,0.00,VWS V14.00,2013-08-19 19:22:00,
2013-08-19 15:23:00,85.6,49.8,0.00,WSW,248,0.0,6.3,29,0.00,,SKC,0.00,VWS V14.00,2013-08-19 19:23:00,
2013-08-19 15:24:00,99.1,58.3,0.00,NW,317,2.7,6.3,26,0.00,,SKC,0.00,VWS V14.00,2013-08-19 19:24:00,
2013-08-19 15:25:00,99.9,58.9,0.00,NW,313,2.2,6.3,26,0.00,,SKC,0.00,VWS V14.00,2013-08-19 19:25:00,
2013-08-19 15:26:00,98.2,57.5,0.00,ENE,64,0.0,6.3,26,0.00,,SKC,0.00,VWS V14.00,2013-08-19 19:26:00,
2013-08-19 15:28:00,88.3,51.1,0.00,NW,323,0.0,6.3,28,0.00,,SKC,0.00,VWS V14.00,2013-08-19 19:28:00,
2013-08-19 15:33:00,91.2,53.6,0.00,NE,51,0.0,6.3,28,0.00,,SKC,0.00,VWS V14.00,2013-08-19 19:33:00,
2013-08-19 15:38:00,89.1,51.8,0.00,NNW,336,2.7,6.3,28,0.00,,SKC,0.00,VWS V14.00,2013-08-19 19:38:00,
2013-08-19 15:43:00,88.0,50.8,0.00,NW,325,2.7,6.3,28,0.00,,SKC,0.00,VWS V14.00,2013-08-19 19:43:00,
2013-08-19 15:48:00,88.2,51.0,0.00,West,281,3.1,6.3,28,0.00,,SKC,0.00,VWS V14.00,2013-08-19 19:48:00,
2013-08-19 15:53:00,93.0,54.1,0.00,West,277,5.4,6.3,27,0.00,,SKC,0.00,VWS V14.00,2013-08-19 19:53:00,
2013-08-19 15:58:00,95.4,56.1,0.00,WNW,288,2.2,6.3,27,0.00,,SKC,0.00,VWS V14.00,2013-08-19 19:58:00,
2013-08-19 16:03:00,98.1,57.4,0.00,SW,233,3.1,3.1,26,0.00,,SKC,0.00,VWS V14.00,2013-08-19 20:03:00,
2013-08-19 16:08:00,98.2,57.5,0.00,SSW,204,2.2,6.3,26,0.00,,SKC,0.00,VWS V14.00,2013-08-19 20:08:00,
2013-08-19 16:13:00,98.4,57.7,0.00,West,275,2.2,6.3,26,0.00,,SKC,0.00,VWS V14.00,2013-08-19 20:13:00,
2013-08-19 16:18:00,99.9,58.9,0.00,NW,319,3.6,6.3,26,0.00,,SKC,0.00,VWS V14.00,2013-08-19 20:18:00,
2013-08-19 16:23:00,98.4,57.7,0.00,NW,308,4.0,6.3,26,0.00,,SKC,0.00,VWS V14.00,2013-08-19 20:23:00,
2013-08-19 16:28:00,97.0,56.4,0.00,ENE,75,0.0,6.3,26,0.00,,SKC,0.00,VWS V14.00,2013-08-19 20:28:00,
2013-08-19 16:34:00,99.1,58.3,0.00,NW,313,0.0,6.3,26,0.00,,SKC,0.00,VWS V14.00,2013-08-19 20:34:00,
2013-08-19 16:39:00,94.5,55.3,0.00,East,86,0.0,6.3,27,0.00,,SKC,0.00,VWS V14.00,2013-08-19 20:39:00,
2013-08-19 16:44:00,97.9,57.2,0.00,NW,312,2.7,6.3,26,0.00,,SKC,0.00,VWS V14.00,2013-08-19 20:44:00,
2013-08-19 16:49:00,95.0,55.8,0.00,West,279,2.7,6.3,27,0.00,,SKC,0.00,VWS V14.00,2013-08-19 20:49:00,
2013-08-19 16:54:00,92.1,53.4,0.00,West,279,0.0,6.3,27,0.00,,SKC,0.00,VWS V14.00,2013-08-19 20:54:00,
2013-08-19 16:59:00,88.3,51.1,0.00,NNW,332,2.2,6.3,28,0.00,,SKC,0.00,VWS V14.00,2013-08-19 20:59:00,
2013-08-19 17:04:00,86.0,50.1,0.00,West,272,2.7,6.3,29,0.00,,SKC,0.00,VWS V14.00,2013-08-19 21:04:00,
2013-08-19 17:09:00,84.6,48.8,0.00,NNW,328,0.0,6.3,29,0.00,,SKC,0.00,VWS V14.00,2013-08-19 21:09:00,
2013-08-19 17:14:00,84.4,48.7,0.00,NNW,328,0.0,6.3,29,0.00,,SKC,0.00,VWS V14.00,2013-08-19 21:14:00,
2013-08-19 17:19:00,84.4,48.7,0.00,NNW,328,0.0,6.3,29,0.00,,SKC,0.00,VWS V14.00,2013-08-19 21:19:00,
2013-08-19 17:22:00,83.8,48.2,0.00,NNE,21,0.0,4.5,29,0.00,,SKC,0.00,VWS V14.00,2013-08-19 21:22:00,
2013-08-19 17:23:00,83.8,48.2,0.00,NNE,21,0.0,4.5,29,0.00,,SKC,0.00,VWS V14.00,2013-08-19 21:23:00,
2013-08-19 17:24:00,85.6,49.8,0.00,NNW,328,0.0,6.3,29,0.00,,SKC,0.00,VWS V14.00,2013-08-19 21:24:00,
2013-08-19 17:25:00,83.5,47.9,0.00,NNE,21,0.0,4.5,29,0.00,,SKC,0.00,VWS V14.00,2013-08-19 21:25:00,
2013-08-19 17:26:00,83.3,47.8,0.00,NNE,21,0.0,4.5,29,0.00,,SKC,0.00,VWS V14.00,2013-08-19 21:26:00,
2013-08-19 17:29:00,88.5,51.3,0.00,NNW,327,2.7,6.3,28,0.00,,SKC,0.00,VWS V14.00,2013-08-19 21:29:00,
2013-08-19 17:34:00,91.2,53.6,0.00,NNW,327,0.0,6.3,28,0.00,,SKC,0.00,VWS V14.00,2013-08-19 21:34:00,
2013-08-19 17:39:00,92.8,54.0,0.00,ENE,77,0.0,6.3,27,0.00,,SKC,0.00,VWS V14.00,2013-08-19 21:39:00,
2013-08-19 17:44:00,94.1,55.0,0.00,North,5,0.0,6.3,27,0.00,,SKC,0.00,VWS V14.00,2013-08-19 21:44:00,
2013-08-19 17:49:00,93.2,54.3,0.00,ENE,58,0.0,6.3,27,0.00,,SKC,0.00,VWS V14.00,2013-08-19 21:49:00,
2013-08-19 17:54:00,94.6,55.5,0.00,NE,43,0.0,6.3,27,0.00,,SKC,0.00,VWS V14.00,2013-08-19 21:54:00,
2013-08-19 17:59:00,94.3,55.2,0.00,NNE,29,0.0,6.3,27,0.00,,SKC,0.00,VWS V14.00,2013-08-19 21:59:00,
2013-08-19 18:00:00,80.8,46.5,0.00,NNE,21,0.0,4.5,30,0.00,,SKC,0.00,VWS V14.00,2013-08-19 22:00:00,
2013-08-19 18:01:00,80.8,46.5,0.00,NNE,21,0.0,4.5,30,0.00,,SKC,0.00,VWS V14.00,2013-08-19 22:01:00,
2013-08-19 18:02:00,80.8,46.5,0.00,NNE,21,0.0,4.5,30,0.00,,SKC,0.00,VWS V14.00,2013-08-19 22:02:00,
2013-08-19 18:03:00,80.6,46.3,0.00,NNE,21,0.0,4.5,30,0.00,,SKC,0.00,VWS V14.00,2013-08-19 22:03:00,
2013-08-19 18:04:00,92.8,54.0,0.00,NW,306,2.2,4.5,27,0.00,,SKC,0.00,VWS V14.00,2013-08-19 22:04:00,
2013-08-19 18:05:00,80.4,46.2,0.00,NNE,21,0.0,4.5,30,0.00,,SKC,0.00,VWS V14.00,2013-08-19 22:05:00,
2013-08-19 18:08:00,88.9,51.6,0.00,NW,308,0.0,4.5,28,0.00,,SKC,0.00,VWS V14.00,2013-08-19 22:08:00,
2013-08-19 18:14:00,86.9,50.8,0.00,West,277,0.0,4.5,29,0.00,,SKC,0.00,VWS V14.00,2013-08-19 22:14:00,
2013-08-19 18:18:00,85.8,49.9,0.00,West,277,0.0,4.5,29,0.00,,SKC,0.00,VWS V14.00,2013-08-19 22:18:00,
2013-08-19 18:23:00,85.1,49.3,0.00,West,277,0.0,4.5,29,0.00,,SKC,0.00,VWS V14.00,2013-08-19 22:23:00,
2013-08-19 18:28:00,84.2,48.5,0.00,NNE,21,0.0,4.5,29,0.00,,SKC,0.00,VWS V14.00,2013-08-19 22:28:00,
2013-08-19 18:31:00,78.6,45.5,0.00,NNE,21,0.0,4.5,31,0.00,,SKC,0.00,VWS V14.00,2013-08-19 22:31:00,
2013-08-19 18:32:00,78.4,45.3,0.00,NNE,21,0.0,4.5,31,0.00,,SKC,0.00,VWS V14.00,2013-08-19 22:32:00,
2013-08-19 18:33:00,78.4,45.3,0.00,NNE,21,0.0,4.5,31,0.00,,SKC,0.00,VWS V14.00,2013-08-19 22:33:00,
2013-08-19 18:34:00,83.5,47.9,0.00,NNE,21,0.0,4.5,29,0.00,,SKC,0.00,VWS V14.00,2013-08-19 22:34:00,
2013-08-19 18:35:00,78.1,45.0,0.00,NNE,21,0.0,4.5,31,0.00,,SKC,0.00,VWS V14.00,2013-08-19 22:35:00,
2013-08-19 18:39:00,82.8,47.3,0.00,NNE,21,0.0,4.5,29,0.00,,SKC,0.00,VWS V14.00,2013-08-19 22:39:00,
2013-08-19 18:44:00,82.4,47.0,0.00,NNE,21,0.0,4.5,29,0.00,,SKC,0.00,VWS V14.00,2013-08-19 22:44:00,
2013-08-19 18:49:00,81.9,47.4,0.00,NNE,21,0.0,4.5,30,0.00,,SKC,0.00,VWS V14.00,2013-08-19 22:49:00,
2013-08-19 18:54:00,81.7,47.3,0.00,NNE,21,0.0,4.5,30,0.00,,SKC,0.00,VWS V14.00,2013-08-19 22:54:00,
2013-08-19 18:59:00,81.3,47.0,0.00,NNE,21,0.0,4.5,30,0.00,,SKC,0.00,VWS V14.00,2013-08-19 22:59:00,
2013-08-19 19:04:00,81.1,46.8,0.00,NNE,21,0.0,4.5,30,0.00,,SKC,0.00,VWS V14.00,2013-08-19 23:04:00,
2013-08-19 19:09:00,80.8,46.5,0.00,NNE,21,0.0,4.5,30,0.00,,SKC,0.00,VWS V14.00,2013-08-19 23:09:00,
2013-08-19 19:14:00,80.4,46.2,0.00,NNE,21,0.0,4.5,30,0.00,,SKC,0.00,VWS V14.00,2013-08-19 23:14:00,
2013-08-19 19:19:00,80.1,45.9,0.00,NNE,21,0.0,4.5,30,0.00,,SKC,0.00,VWS V14.00,2013-08-19 23:19:00,
2013-08-19 19:22:00,72.5,41.0,0.00,NNE,21,0.0,0.0,32,0.00,,SKC,0.00,VWS V14.00,2013-08-19 23:22:00,
2013-08-19 19:23:00,72.5,41.0,0.00,NNE,21,0.0,0.0,32,0.00,,SKC,0.00,VWS V14.00,2013-08-19 23:23:00,
2013-08-19 19:24:00,79.7,45.6,0.00,NNE,21,0.0,4.5,30,0.00,,SKC,0.00,VWS V14.00,2013-08-19 23:24:00,
2013-08-19 19:25:00,72.3,40.8,0.00,NNE,21,0.0,0.0,32,0.00,,SKC,0.00,VWS V14.00,2013-08-19 23:25:00,
2013-08-19 19:26:00,72.3,40.8,0.00,NNE,21,0.0,0.0,32,0.00,,SKC,0.00,VWS V14.00,2013-08-19 23:26:00,
2013-08-19 19:29:00,79.3,45.2,0.00,NNE,21,0.0,4.5,30,0.00,,SKC,0.00,VWS V14.00,2013-08-19 23:29:00,
2013-08-19 19:31:00,71.8,40.4,0.00,NNE,21,0.0,0.0,32,0.00,,SKC,0.00,VWS V14.00,2013-08-19 23:31:00,
2013-08-19 19:32:00,71.8,40.4,0.00,NNE,21,0.0,0.0,32,0.00,,SKC,0.00,VWS V14.00,2013-08-19 23:32:00,
2013-08-19 19:33:00,71.6,40.2,0.00,NNE,21,0.0,0.0,32,0.00,,SKC,0.00,VWS V14.00,2013-08-19 23:33:00,
2013-08-19 19:34:00,78.8,44.8,0.00,NNE,21,0.0,4.5,30,0.00,,SKC,0.00,VWS V14.00,2013-08-19 23:34:00,
2013-08-19 19:35:00,71.4,40.0,0.00,NNE,21,0.0,0.0,32,0.00,,SKC,0.00,VWS V14.00,2013-08-19 23:35:00,
2013-08-19 19:41:00,78.3,45.2,0.00,NNE,21,0.0,4.5,31,0.00,,SKC,0.00,VWS V14.00,2013-08-19 23:41:00,
2013-08-19 19:46:00,77.7,44.7,0.00,NNE,21,0.0,4.5,31,0.00,,SKC,0.00,VWS V14.00,2013-08-19 23:46:00,
2013-08-19 19:51:00,77.2,44.2,0.00,NNE,21,0.0,4.5,31,0.00,,SKC,0.00,VWS V14.00,2013-08-19 23:51:00,
2013-08-19 19:56:00,76.6,43.8,0.00,NNE,21,0.0,4.5,31,0.00,,SKC,0.00,VWS V14.00,2013-08-19 23:56:00,
2013-08-19 20:01:00,76.1,43.3,0.00,NNE,21,0.0,0.0,31,0.00,,SKC,0.00,VWS V14.00,2013-08-20 00:01:00,
2013-08-19 20:06:00,75.4,42.7,0.00,NNE,21,0.0,0.0,31,0.00,,SKC,0.00,VWS V14.00,2013-08-20 00:06:00,
2013-08-19 20:11:00,74.8,42.2,0.00,NNE,21,0.0,0.0,31,0.00,,SKC,0.00,VWS V14.00,2013-08-20 00:11:00,
2013-08-19 20:16:00,74.1,41.6,0.00,NNE,21,0.0,0.0,31,0.00,,SKC,0.00,VWS V14.00,2013-08-20 00:16:00,
2013-08-19 20:21:00,73.6,41.1,0.00,NNE,21,0.0,0.0,31,0.00,,SKC,0.00,VWS V14.00,2013-08-20 00:21:00,
2013-08-19 20:26:00,73.2,41.6,0.00,NNE,21,0.0,0.0,32,0.00,,SKC,0.00,VWS V14.00,2013-08-20 00:26:00,
2013-08-19 20:33:00,72.3,40.8,0.00,NNE,21,0.0,0.0,32,0.00,,SKC,0.00,VWS V14.00,2013-08-20 00:33:00,
2013-08-19 20:41:00,71.6,40.2,0.00,NNE,21,0.0,0.0,32,0.00,,SKC,0.00,VWS V14.00,2013-08-20 00:41:00,
2013-08-19 20:46:00,71.1,39.7,0.00,NNE,21,0.0,0.0,32,0.00,,SKC,0.00,VWS V14.00,2013-08-20 00:46:00,
2013-08-19 20:51:00,70.7,39.4,0.00,NNE,21,0.0,0.0,32,0.00,,SKC,0.00,VWS V14.00,2013-08-20 00:51:00,
2013-08-19 20:56:00,70.3,39.1,0.00,NNE,21,0.0,0.0,32,0.00,,SKC,0.00,VWS V14.00,2013-08-20 00:56:00,
2013-08-19 21:01:00,70.0,38.8,0.00,NNE,21,0.0,0.0,32,0.00,,SKC,0.00,VWS V14.00,2013-08-20 01:01:00,
2013-08-19 21:06:00,69.6,39.3,0.00,NNE,21,0.0,0.0,33,0.00,,SKC,0.00,VWS V14.00,2013-08-20 01:06:00,
2013-08-19 21:11:00,69.4,39.1,0.00,NNE,21,0.0,0.0,33,0.00,,SKC,0.00,VWS V14.00,2013-08-20 01:11:00,
2013-08-19 21:16:00,69.4,39.1,0.00,NNE,21,0.0,0.0,33,0.00,,SKC,0.00,VWS V14.00,2013-08-20 01:16:00,
2013-08-19 21:21:00,68.9,38.6,0.00,NNE,21,0.0,0.0,33,0.00,,SKC,0.00,VWS V14.00,2013-08-20 01:21:00,
2013-08-19 21:22:00,66.9,36.9,0.00,NNE,28,0.0,0.0,33,0.00,,SKC,0.00,VWS V14.00,2013-08-20 01:22:00,
2013-08-19 21:23:00,66.7,36.8,0.00,NNE,28,0.0,0.0,33,0.00,,SKC,0.00,VWS V14.00,2013-08-20 01:23:00,
2013-08-19 21:24:00,66.7,36.8,0.00,NNE,28,0.0,0.0,33,0.00,,SKC,0.00,VWS V14.00,2013-08-20 01:24:00,
2013-08-19 21:25:00,66.7,36.8,0.00,NNE,28,0.0,0.0,33,0.00,,SKC,0.00,VWS V14.00,2013-08-20 01:25:00,
2013-08-19 21:26:00,68.7,38.5,0.00,NNE,21,0.0,0.0,33,0.00,,SKC,0.00,VWS V14.00,2013-08-20 01:26:00,
2013-08-19 21:31:00,68.4,38.2,0.00,NNE,21,0.0,0.0,33,0.00,,SKC,0.00,VWS V14.00,2013-08-20 01:31:00,
2013-08-19 21:32:00,66.7,36.8,0.00,NNE,28,0.0,0.0,33,0.00,,SKC,0.00,VWS V14.00,2013-08-20 01:32:00,
2013-08-19 21:33:00,66.7,36.8,0.00,NNE,28,0.0,0.0,33,0.00,,SKC,0.00,VWS V14.00,2013-08-20 01:33:00,
2013-08-19 21:34:00,66.7,36.8,0.00,NNE,28,0.0,0.0,33,0.00,,SKC,0.00,VWS V14.00,2013-08-20 01:34:00,
2013-08-19 21:35:00,66.7,36.8,0.00,NNE,28,0.0,0.0,33,0.00,,SKC,0.00,VWS V14.00,2013-08-20 01:35:00,
2013-08-19 21:36:00,68.2,38.0,0.00,NNE,21,0.0,0.0,33,0.00,,SKC,0.00,VWS V14.00,2013-08-20 01:36:00,
2013-08-19 21:41:00,68.0,37.8,0.00,NNE,21,0.0,0.0,33,0.00,,SKC,0.00,VWS V14.00,2013-08-20 01:41:00,
2013-08-19 21:46:00,68.0,37.8,0.00,NNE,21,0.0,0.0,33,0.00,,SKC,0.00,VWS V14.00,2013-08-20 01:46:00,
2013-08-19 21:51:00,67.8,37.7,0.00,NNE,21,0.0,0.0,33,0.00,,SKC,0.00,VWS V14.00,2013-08-20 01:51:00,
2013-08-19 21:56:00,67.8,37.7,0.00,NNE,21,0.0,0.0,33,0.00,,SKC,0.00,VWS V14.00,2013-08-20 01:56:00,
2013-08-19 22:01:00,67.6,37.5,0.00,NNE,21,0.0,0.0,33,0.00,,SKC,0.00,VWS V14.00,2013-08-20 02:01:00,
2013-08-19 22:06:00,67.5,37.4,0.00,NNE,21,0.0,0.0,33,0.00,,SKC,0.00,VWS V14.00,2013-08-20 02:06:00,
2013-08-19 22:11:00,67.3,37.2,0.00,NNE,21,0.0,0.0,33,0.00,,SKC,0.00,VWS V14.00,2013-08-20 02:11:00,
2013-08-19 22:16:00,67.1,37.1,0.00,NNE,21,0.0,0.0,33,0.00,,SKC,0.00,VWS V14.00,2013-08-20 02:16:00,
2013-08-19 22:21:00,67.1,37.1,0.00,NNE,21,0.0,0.0,33,0.00,,SKC,0.00,VWS V14.00,2013-08-20 02:21:00,
2013-08-19 22:26:00,67.3,37.2,0.00,NNE,28,0.0,0.0,33,0.00,,SKC,0.00,VWS V14.00,2013-08-20 02:26:00,
2013-08-19 22:29:00,66.2,36.3,0.00,NNE,28,0.0,0.0,33,0.00,,SKC,0.00,VWS V14.00,2013-08-20 02:29:00,
2013-08-19 22:31:00,66.2,36.3,0.00,NNE,28,0.0,0.0,33,0.00,,SKC,0.00,VWS V14.00,2013-08-20 02:31:00,
2013-08-19 22:32:00,66.2,36.3,0.00,NNE,28,0.0,0.0,33,0.00,,SKC,0.00,VWS V14.00,2013-08-20 02:32:00,
2013-08-19 22:34:00,66.7,36.8,0.00,NNE,28,0.0,0.0,33,0.00,,SKC,0.00,VWS V14.00,2013-08-20 02:34:00,
2013-08-19 22:42:00,66.7,36.8,0.00,NNE,28,0.0,0.0,33,0.00,,SKC,0.00,VWS V14.00,2013-08-20 02:42:00,
2013-08-19 22:47:00,66.7,36.8,0.00,NNE,28,0.0,0.0,33,0.00,,SKC,0.00,VWS V14.00,2013-08-20 02:47:00,
2013-08-19 22:52:00,66.9,36.9,0.00,NNE,28,0.0,0.0,33,0.00,,SKC,0.00,VWS V14.00,2013-08-20 02:52:00,
2013-08-19 22:57:00,66.7,36.8,0.00,NNE,28,0.0,0.0,33,0.00,,SKC,0.00,VWS V14.00,2013-08-20 02:57:00,
2013-08-19 23:02:00,66.6,36.6,0.00,NNE,28,0.0,0.0,33,0.00,,SKC,0.00,VWS V14.00,2013-08-20 03:02:00,
2013-08-19 23:07:00,66.7,36.8,0.00,NNE,28,0.0,0.0,33,0.00,,SKC,0.00,VWS V14.00,2013-08-20 03:07:00,
2013-08-19 23:12:00,66.9,36.9,0.00,NNE,28,0.0,0.0,33,0.00,,SKC,0.00,VWS V14.00,2013-08-20 03:12:00,
2013-08-19 23:17:00,66.7,36.8,0.00,NNE,28,0.0,0.0,33,0.00,,SKC,0.00,VWS V14.00,2013-08-20 03:17:00,
2013-08-19 23:22:00,66.7,36.8,0.00,NNE,28,0.0,0.0,33,0.00,,SKC,0.00,VWS V14.00,2013-08-20 03:22:00,
2013-08-19 23:23:00,64.9,35.9,0.00,NNE,28,0.0,0.0,34,0.00,,SKC,0.00,VWS V14.00,2013-08-20 03:23:00,
2013-08-19 23:24:00,64.9,35.9,0.00,NNE,28,0.0,0.0,34,0.00,,SKC,0.00,VWS V14.00,2013-08-20 03:24:00,
2013-08-19 23:25:00,64.9,35.9,0.00,NNE,28,0.0,0.0,34,0.00,,SKC,0.00,VWS V14.00,2013-08-20 03:25:00,
2013-08-19 23:26:00,64.9,35.9,0.00,NNE,28,0.0,0.0,34,0.00,,SKC,0.00,VWS V14.00,2013-08-20 03:26:00,
2013-08-19 23:27:00,66.6,36.6,0.00,NNE,28,0.0,0.0,33,0.00,,SKC,0.00,VWS V14.00,2013-08-20 03:27:00,
2013-08-19 23:32:00,66.4,36.4,0.00,NNE,28,0.0,0.0,33,0.00,,SKC,0.00,VWS V14.00,2013-08-20 03:32:00,
2013-08-19 23:37:00,66.2,36.3,0.00,NNE,28,0.0,0.0,33,0.00,,SKC,0.00,VWS V14.00,2013-08-20 03:37:00,
2013-08-19 23:42:00,66.0,36.9,0.00,NNE,28,0.0,0.0,34,0.00,,SKC,0.00,VWS V14.00,2013-08-20 03:42:00,
2013-08-19 23:47:00,65.8,36.7,0.00,NNE,28,0.0,0.0,34,0.00,,SKC,0.00,VWS V14.00,2013-08-20 03:47:00,
2013-08-19 23:52:00,65.8,36.7,0.00,NNE,28,0.0,0.0,34,0.00,,SKC,0.00,VWS V14.00,2013-08-20 03:52:00,
2013-08-19 23:57:00,65.7,36.6,0.00,NNE,28,0.0,0.0,34,0.00,,SKC,0.00,VWS V14.00,2013-08-20 03:57:00,